sensor_id;sensor_type;location;lat;lon;timestamp;P1;durP1;ratioP1;P2;durP2;ratioP2
25163;SDS011;13440;50.860;13.662;2023-04-29T00:02:06;12.35;;;9.35;;
25163;SDS011;13440;50.860;13.662;2023-04-29T00:04:31;10.95;;;9.48;;
25163;SDS011;13440;50.860;13.662;2023-04-29T00:06:57;12.07;;;10.10;;
25163;SDS011;13440;50.860;13.662;2023-04-29T00:09:22;12.20;;;9.17;;
25163;SDS011;13440;50.860;13.662;2023-04-29T00:11:47;10.80;;;8.68;;
25163;SDS011;13440;50.860;13.662;2023-04-29T00:14:14;13.25;;;10.00;;
25163;SDS011;13440;50.860;13.662;2023-04-29T00:16:39;10.10;;;8.48;;
25163;SDS011;13440;50.860;13.662;2023-04-29T00:19:04;10.68;;;8.57;;
25163;SDS011;13440;50.860;13.662;2023-04-29T00:21:29;9.40;;;8.30;;
25163;SDS011;13440;50.860;13.662;2023-04-29T00:23:56;10.45;;;8.68;;
25163;SDS011;13440;50.860;13.662;2023-04-29T00:26:21;11.32;;;9.30;;
25163;SDS011;13440;50.860;13.662;2023-04-29T00:28:47;10.80;;;8.57;;
25163;SDS011;13440;50.860;13.662;2023-04-29T00:31:12;9.73;;;8.70;;
25163;SDS011;13440;50.860;13.662;2023-04-29T00:33:38;10.68;;;8.50;;
25163;SDS011;13440;50.860;13.662;2023-04-29T00:36:05;9.52;;;8.25;;
25163;SDS011;13440;50.860;13.662;2023-04-29T00:38:30;10.23;;;8.55;;
25163;SDS011;13440;50.860;13.662;2023-04-29T00:40:56;8.80;;;7.90;;
25163;SDS011;13440;50.860;13.662;2023-04-29T00:43:21;9.30;;;8.07;;
25163;SDS011;13440;50.860;13.662;2023-04-29T00:45:46;10.77;;;7.97;;
25163;SDS011;13440;50.860;13.662;2023-04-29T00:48:12;9.43;;;7.82;;
25163;SDS011;13440;50.860;13.662;2023-04-29T00:50:39;8.85;;;7.90;;
25163;SDS011;13440;50.860;13.662;2023-04-29T00:53:05;7.78;;;6.97;;
25163;SDS011;13440;50.860;13.662;2023-04-29T00:55:31;8.20;;;6.97;;
25163;SDS011;13440;50.860;13.662;2023-04-29T00:57:56;8.35;;;6.72;;
25163;SDS011;13440;50.860;13.662;2023-04-29T01:00:22;8.77;;;7.18;;
25163;SDS011;13440;50.860;13.662;2023-04-29T01:02:48;8.90;;;7.45;;
25163;SDS011;13440;50.860;13.662;2023-04-29T01:05:14;8.75;;;7.32;;
25163;SDS011;13440;50.860;13.662;2023-04-29T01:10:34;8.00;;;6.90;;
25163;SDS011;13440;50.860;13.662;2023-04-29T01:15:59;6.55;;;5.68;;
25163;SDS011;13440;50.860;13.662;2023-04-29T01:18:26;6.85;;;6.15;;
25163;SDS011;13440;50.860;13.662;2023-04-29T01:20:54;9.23;;;6.85;;
25163;SDS011;13440;50.860;13.662;2023-04-29T01:23:24;8.93;;;6.68;;
25163;SDS011;13440;50.860;13.662;2023-04-29T01:25:50;8.88;;;7.15;;
25163;SDS011;13440;50.860;13.662;2023-04-29T01:30:53;5.47;;;4.00;;
25163;SDS011;13440;50.860;13.662;2023-04-29T01:36:07;6.90;;;5.00;;
25163;SDS011;13440;50.860;13.662;2023-04-29T01:38:45;6.05;;;5.45;;
25163;SDS011;13440;50.860;13.662;2023-04-29T01:41:15;8.60;;;5.57;;
25163;SDS011;13440;50.860;13.662;2023-04-29T01:43:45;7.63;;;5.55;;
25163;SDS011;13440;50.860;13.662;2023-04-29T01:46:17;6.63;;;5.97;;
25163;SDS011;13440;50.860;13.662;2023-04-29T01:48:47;9.63;;;7.53;;
25163;SDS011;13440;50.860;13.662;2023-04-29T01:51:12;10.10;;;9.00;;
25163;SDS011;13440;50.860;13.662;2023-04-29T01:53:39;12.50;;;10.23;;
25163;SDS011;13440;50.860;13.662;2023-04-29T01:56:07;12.32;;;10.40;;
25163;SDS011;13440;50.860;13.662;2023-04-29T01:58:59;12.80;;;9.00;;
25163;SDS011;13440;50.860;13.662;2023-04-29T02:01:43;11.15;;;9.13;;
25163;SDS011;13440;50.860;13.662;2023-04-29T02:04:08;11.25;;;8.23;;
25163;SDS011;13440;50.860;13.662;2023-04-29T02:06:34;9.60;;;7.25;;
25163;SDS011;13440;50.860;13.662;2023-04-29T02:09:02;7.53;;;6.75;;
25163;SDS011;13440;50.860;13.662;2023-04-29T02:11:29;10.80;;;7.05;;
25163;SDS011;13440;50.860;13.662;2023-04-29T02:13:56;9.75;;;7.38;;
25163;SDS011;13440;50.860;13.662;2023-04-29T02:16:21;12.55;;;7.80;;
25163;SDS011;13440;50.860;13.662;2023-04-29T02:18:54;10.15;;;7.47;;
25163;SDS011;13440;50.860;13.662;2023-04-29T02:21:20;9.27;;;7.30;;
25163;SDS011;13440;50.860;13.662;2023-04-29T02:23:45;9.20;;;7.70;;
25163;SDS011;13440;50.860;13.662;2023-04-29T02:26:10;7.53;;;6.70;;
25163;SDS011;13440;50.860;13.662;2023-04-29T02:28:36;10.13;;;8.00;;
25163;SDS011;13440;50.860;13.662;2023-04-29T02:31:02;7.40;;;6.55;;
25163;SDS011;13440;50.860;13.662;2023-04-29T02:33:28;8.43;;;6.53;;
25163;SDS011;13440;50.860;13.662;2023-04-29T02:35:54;17.50;;;8.50;;
25163;SDS011;13440;50.860;13.662;2023-04-29T02:38:19;10.83;;;7.50;;
25163;SDS011;13440;50.860;13.662;2023-04-29T02:40:45;10.52;;;7.43;;
25163;SDS011;13440;50.860;13.662;2023-04-29T02:43:10;12.75;;;9.00;;
25163;SDS011;13440;50.860;13.662;2023-04-29T02:45:36;12.75;;;8.30;;
25163;SDS011;13440;50.860;13.662;2023-04-29T02:48:01;14.02;;;8.23;;
25163;SDS011;13440;50.860;13.662;2023-04-29T02:50:27;8.75;;;6.57;;
25163;SDS011;13440;50.860;13.662;2023-04-29T02:52:53;10.68;;;6.63;;
25163;SDS011;13440;50.860;13.662;2023-04-29T02:55:18;11.07;;;7.07;;
25163;SDS011;13440;50.860;13.662;2023-04-29T02:57:43;11.35;;;6.85;;
25163;SDS011;13440;50.860;13.662;2023-04-29T03:00:09;12.43;;;7.50;;
25163;SDS011;13440;50.860;13.662;2023-04-29T03:02:34;11.30;;;7.55;;
25163;SDS011;13440;50.860;13.662;2023-04-29T03:05:00;13.50;;;8.20;;
25163;SDS011;13440;50.860;13.662;2023-04-29T03:07:25;11.18;;;7.68;;
25163;SDS011;13440;50.860;13.662;2023-04-29T03:09:51;11.25;;;8.10;;
25163;SDS011;13440;50.860;13.662;2023-04-29T03:12:16;12.07;;;8.23;;
25163;SDS011;13440;50.860;13.662;2023-04-29T03:14:41;10.20;;;7.97;;
25163;SDS011;13440;50.860;13.662;2023-04-29T03:17:06;11.03;;;8.77;;
25163;SDS011;13440;50.860;13.662;2023-04-29T03:19:32;11.43;;;8.07;;
25163;SDS011;13440;50.860;13.662;2023-04-29T03:21:58;12.68;;;8.90;;
25163;SDS011;13440;50.860;13.662;2023-04-29T03:24:23;10.50;;;8.40;;
25163;SDS011;13440;50.860;13.662;2023-04-29T03:26:48;9.63;;;7.70;;
25163;SDS011;13440;50.860;13.662;2023-04-29T03:29:14;9.87;;;7.97;;
25163;SDS011;13440;50.860;13.662;2023-04-29T03:31:39;9.70;;;8.02;;
25163;SDS011;13440;50.860;13.662;2023-04-29T03:34:04;10.47;;;8.07;;
25163;SDS011;13440;50.860;13.662;2023-04-29T03:36:33;9.60;;;7.82;;
25163;SDS011;13440;50.860;13.662;2023-04-29T03:39:02;8.65;;;6.68;;
25163;SDS011;13440;50.860;13.662;2023-04-29T03:41:28;7.25;;;6.30;;
25163;SDS011;13440;50.860;13.662;2023-04-29T03:43:53;8.50;;;6.18;;
25163;SDS011;13440;50.860;13.662;2023-04-29T03:46:20;8.43;;;6.55;;
25163;SDS011;13440;50.860;13.662;2023-04-29T03:48:45;8.05;;;6.22;;
25163;SDS011;13440;50.860;13.662;2023-04-29T03:51:10;6.50;;;5.72;;
25163;SDS011;13440;50.860;13.662;2023-04-29T03:53:37;6.68;;;6.00;;
25163;SDS011;13440;50.860;13.662;2023-04-29T03:56:04;7.32;;;5.55;;
25163;SDS011;13440;50.860;13.662;2023-04-29T03:58:29;7.65;;;6.30;;
25163;SDS011;13440;50.860;13.662;2023-04-29T04:00:54;8.20;;;6.05;;
25163;SDS011;13440;50.860;13.662;2023-04-29T04:03:24;9.07;;;6.75;;
25163;SDS011;13440;50.860;13.662;2023-04-29T04:05:53;7.93;;;6.93;;
25163;SDS011;13440;50.860;13.662;2023-04-29T04:08:20;8.40;;;7.47;;
25163;SDS011;13440;50.860;13.662;2023-04-29T04:10:59;11.45;;;9.02;;
25163;SDS011;13440;50.860;13.662;2023-04-29T04:13:35;10.30;;;8.20;;
25163;SDS011;13440;50.860;13.662;2023-04-29T04:16:01;9.60;;;7.45;;
25163;SDS011;13440;50.860;13.662;2023-04-29T04:18:28;10.52;;;7.30;;
25163;SDS011;13440;50.860;13.662;2023-04-29T04:20:54;9.05;;;7.53;;
25163;SDS011;13440;50.860;13.662;2023-04-29T04:23:20;9.10;;;7.78;;
25163;SDS011;13440;50.860;13.662;2023-04-29T04:25:45;11.80;;;7.72;;
25163;SDS011;13440;50.860;13.662;2023-04-29T04:28:31;11.43;;;8.95;;
25163;SDS011;13440;50.860;13.662;2023-04-29T04:31:00;11.43;;;9.18;;
25163;SDS011;13440;50.860;13.662;2023-04-29T04:33:26;10.20;;;8.80;;
25163;SDS011;13440;50.860;13.662;2023-04-29T04:35:52;11.35;;;9.35;;
25163;SDS011;13440;50.860;13.662;2023-04-29T04:38:17;12.57;;;10.52;;
25163;SDS011;13440;50.860;13.662;2023-04-29T04:40:43;15.55;;;13.05;;
25163;SDS011;13440;50.860;13.662;2023-04-29T04:43:26;17.55;;;13.55;;
25163;SDS011;13440;50.860;13.662;2023-04-29T04:45:52;18.73;;;14.30;;
25163;SDS011;13440;50.860;13.662;2023-04-29T04:48:17;20.08;;;15.30;;
25163;SDS011;13440;50.860;13.662;2023-04-29T04:50:47;17.83;;;14.18;;
25163;SDS011;13440;50.860;13.662;2023-04-29T04:53:12;20.07;;;15.00;;
25163;SDS011;13440;50.860;13.662;2023-04-29T04:55:45;19.25;;;15.15;;
25163;SDS011;13440;50.860;13.662;2023-04-29T04:58:11;20.55;;;16.63;;
25163;SDS011;13440;50.860;13.662;2023-04-29T05:00:37;23.55;;;17.83;;
25163;SDS011;13440;50.860;13.662;2023-04-29T05:03:03;22.27;;;18.35;;
25163;SDS011;13440;50.860;13.662;2023-04-29T05:05:28;23.88;;;18.95;;
25163;SDS011;13440;50.860;13.662;2023-04-29T05:07:53;22.17;;;18.60;;
25163;SDS011;13440;50.860;13.662;2023-04-29T05:10:25;23.95;;;19.45;;
25163;SDS011;13440;50.860;13.662;2023-04-29T05:12:51;24.70;;;19.95;;
25163;SDS011;13440;50.860;13.662;2023-04-29T05:15:18;24.52;;;18.63;;
25163;SDS011;13440;50.860;13.662;2023-04-29T05:17:46;22.80;;;18.40;;
25163;SDS011;13440;50.860;13.662;2023-04-29T05:20:14;23.65;;;18.23;;
25163;SDS011;13440;50.860;13.662;2023-04-29T05:22:39;21.30;;;17.55;;
25163;SDS011;13440;50.860;13.662;2023-04-29T05:25:05;23.33;;;18.80;;
25163;SDS011;13440;50.860;13.662;2023-04-29T05:27:33;21.27;;;17.50;;
25163;SDS011;13440;50.860;13.662;2023-04-29T05:29:59;21.55;;;17.83;;
25163;SDS011;13440;50.860;13.662;2023-04-29T05:32:25;21.02;;;17.15;;
25163;SDS011;13440;50.860;13.662;2023-04-29T05:34:50;21.10;;;17.20;;
25163;SDS011;13440;50.860;13.662;2023-04-29T05:37:16;18.88;;;15.57;;
25163;SDS011;13440;50.860;13.662;2023-04-29T05:39:57;17.85;;;15.60;;
25163;SDS011;13440;50.860;13.662;2023-04-29T05:42:23;16.73;;;14.68;;
25163;SDS011;13440;50.860;13.662;2023-04-29T05:44:52;19.10;;;15.68;;
25163;SDS011;13440;50.860;13.662;2023-04-29T05:47:17;19.15;;;16.02;;
25163;SDS011;13440;50.860;13.662;2023-04-29T05:49:42;20.10;;;16.45;;
25163;SDS011;13440;50.860;13.662;2023-04-29T05:52:08;20.70;;;16.42;;
25163;SDS011;13440;50.860;13.662;2023-04-29T05:54:38;19.95;;;17.15;;
25163;SDS011;13440;50.860;13.662;2023-04-29T05:57:04;20.63;;;16.88;;
25163;SDS011;13440;50.860;13.662;2023-04-29T05:59:30;20.77;;;16.97;;
25163;SDS011;13440;50.860;13.662;2023-04-29T06:01:57;19.30;;;15.82;;
25163;SDS011;13440;50.860;13.662;2023-04-29T06:04:23;19.98;;;16.10;;
25163;SDS011;13440;50.860;13.662;2023-04-29T06:07:10;18.90;;;15.02;;
25163;SDS011;13440;50.860;13.662;2023-04-29T06:09:58;18.38;;;14.02;;
25163;SDS011;13440;50.860;13.662;2023-04-29T06:12:25;18.67;;;14.50;;
25163;SDS011;13440;50.860;13.662;2023-04-29T06:14:50;18.30;;;14.32;;
25163;SDS011;13440;50.860;13.662;2023-04-29T06:17:15;17.42;;;13.02;;
25163;SDS011;13440;50.860;13.662;2023-04-29T06:19:41;15.43;;;12.85;;
25163;SDS011;13440;50.860;13.662;2023-04-29T06:22:08;15.95;;;13.00;;
25163;SDS011;13440;50.860;13.662;2023-04-29T06:24:33;15.95;;;12.82;;
25163;SDS011;13440;50.860;13.662;2023-04-29T06:27:00;16.00;;;13.32;;
25163;SDS011;13440;50.860;13.662;2023-04-29T06:29:25;17.27;;;13.80;;
25163;SDS011;13440;50.860;13.662;2023-04-29T06:31:50;18.23;;;13.63;;
25163;SDS011;13440;50.860;13.662;2023-04-29T06:34:16;18.70;;;14.48;;
25163;SDS011;13440;50.860;13.662;2023-04-29T06:37:04;18.58;;;14.23;;
25163;SDS011;13440;50.860;13.662;2023-04-29T06:39:49;17.80;;;13.48;;
25163;SDS011;13440;50.860;13.662;2023-04-29T06:42:38;16.05;;;13.45;;
25163;SDS011;13440;50.860;13.662;2023-04-29T06:45:23;16.17;;;12.23;;
25163;SDS011;13440;50.860;13.662;2023-04-29T06:48:01;16.88;;;13.25;;
25163;SDS011;13440;50.860;13.662;2023-04-29T06:50:49;15.13;;;12.57;;
25163;SDS011;13440;50.860;13.662;2023-04-29T06:53:15;13.73;;;10.85;;
25163;SDS011;13440;50.860;13.662;2023-04-29T06:55:40;14.25;;;10.50;;
25163;SDS011;13440;50.860;13.662;2023-04-29T06:58:06;13.65;;;10.70;;
25163;SDS011;13440;50.860;13.662;2023-04-29T07:00:32;13.88;;;10.68;;
25163;SDS011;13440;50.860;13.662;2023-04-29T07:02:57;12.80;;;10.30;;
25163;SDS011;13440;50.860;13.662;2023-04-29T07:05:22;12.60;;;11.07;;
25163;SDS011;13440;50.860;13.662;2023-04-29T07:07:48;11.73;;;9.68;;
25163;SDS011;13440;50.860;13.662;2023-04-29T07:10:13;13.73;;;11.70;;
25163;SDS011;13440;50.860;13.662;2023-04-29T07:12:38;14.23;;;11.52;;
25163;SDS011;13440;50.860;13.662;2023-04-29T07:15:04;13.77;;;10.73;;
25163;SDS011;13440;50.860;13.662;2023-04-29T07:17:29;13.13;;;10.85;;
25163;SDS011;13440;50.860;13.662;2023-04-29T07:19:55;13.48;;;11.07;;
25163;SDS011;13440;50.860;13.662;2023-04-29T07:22:20;11.87;;;9.37;;
25163;SDS011;13440;50.860;13.662;2023-04-29T07:24:46;11.55;;;10.18;;
25163;SDS011;13440;50.860;13.662;2023-04-29T07:27:11;10.90;;;9.07;;
25163;SDS011;13440;50.860;13.662;2023-04-29T07:29:37;9.13;;;8.07;;
25163;SDS011;13440;50.860;13.662;2023-04-29T07:32:02;8.82;;;7.93;;
25163;SDS011;13440;50.860;13.662;2023-04-29T07:34:28;9.68;;;7.32;;
25163;SDS011;13440;50.860;13.662;2023-04-29T07:36:53;9.93;;;8.40;;
25163;SDS011;13440;50.860;13.662;2023-04-29T07:39:18;10.32;;;7.25;;
25163;SDS011;13440;50.860;13.662;2023-04-29T07:41:46;7.70;;;6.40;;
25163;SDS011;13440;50.860;13.662;2023-04-29T07:44:12;7.70;;;6.73;;
25163;SDS011;13440;50.860;13.662;2023-04-29T07:46:37;8.75;;;6.70;;
25163;SDS011;13440;50.860;13.662;2023-04-29T07:49:02;7.68;;;6.03;;
25163;SDS011;13440;50.860;13.662;2023-04-29T07:51:27;6.55;;;5.05;;
25163;SDS011;13440;50.860;13.662;2023-04-29T07:53:53;5.00;;;4.50;;
25163;SDS011;13440;50.860;13.662;2023-04-29T07:56:18;3.97;;;3.60;;
25163;SDS011;13440;50.860;13.662;2023-04-29T07:58:44;4.05;;;3.38;;
25163;SDS011;13440;50.860;13.662;2023-04-29T08:01:09;4.45;;;3.42;;
25163;SDS011;13440;50.860;13.662;2023-04-29T08:03:36;3.90;;;3.60;;
25163;SDS011;13440;50.860;13.662;2023-04-29T08:06:05;4.72;;;3.88;;
25163;SDS011;13440;50.860;13.662;2023-04-29T08:08:30;4.78;;;3.63;;
25163;SDS011;13440;50.860;13.662;2023-04-29T08:10:56;4.35;;;3.95;;
25163;SDS011;13440;50.860;13.662;2023-04-29T08:13:21;5.35;;;4.07;;
25163;SDS011;13440;50.860;13.662;2023-04-29T08:15:46;4.75;;;4.32;;
25163;SDS011;13440;50.860;13.662;2023-04-29T08:18:11;6.43;;;5.83;;
25163;SDS011;13440;50.860;13.662;2023-04-29T08:20:36;7.10;;;6.23;;
25163;SDS011;13440;50.860;13.662;2023-04-29T08:23:02;8.43;;;6.73;;
25163;SDS011;13440;50.860;13.662;2023-04-29T08:25:28;7.50;;;6.72;;
25163;SDS011;13440;50.860;13.662;2023-04-29T08:27:54;7.80;;;7.00;;
25163;SDS011;13440;50.860;13.662;2023-04-29T08:30:19;7.70;;;7.00;;
25163;SDS011;13440;50.860;13.662;2023-04-29T08:32:44;7.67;;;6.87;;
25163;SDS011;13440;50.860;13.662;2023-04-29T08:35:10;8.82;;;7.47;;
25163;SDS011;13440;50.860;13.662;2023-04-29T08:37:35;9.40;;;8.50;;
25163;SDS011;13440;50.860;13.662;2023-04-29T08:40:01;9.02;;;8.07;;
25163;SDS011;13440;50.860;13.662;2023-04-29T08:42:31;8.02;;;7.15;;
25163;SDS011;13440;50.860;13.662;2023-04-29T08:44:56;9.07;;;8.18;;
25163;SDS011;13440;50.860;13.662;2023-04-29T08:47:23;14.60;;;13.00;;
25163;SDS011;13440;50.860;13.662;2023-04-29T08:49:48;10.57;;;9.57;;
25163;SDS011;13440;50.860;13.662;2023-04-29T08:52:14;9.43;;;8.50;;
25163;SDS011;13440;50.860;13.662;2023-04-29T08:54:39;8.70;;;7.72;;
25163;SDS011;13440;50.860;13.662;2023-04-29T08:57:05;8.98;;;8.13;;
25163;SDS011;13440;50.860;13.662;2023-04-29T08:59:30;9.90;;;8.95;;
25163;SDS011;13440;50.860;13.662;2023-04-29T09:01:56;11.13;;;9.50;;
25163;SDS011;13440;50.860;13.662;2023-04-29T09:07:05;11.18;;;10.07;;
25163;SDS011;13440;50.860;13.662;2023-04-29T09:09:31;10.00;;;9.10;;
25163;SDS011;13440;50.860;13.662;2023-04-29T09:11:57;10.25;;;9.25;;
25163;SDS011;13440;50.860;13.662;2023-04-29T09:14:23;10.68;;;9.68;;
25163;SDS011;13440;50.860;13.662;2023-04-29T09:16:49;11.20;;;10.10;;
25163;SDS011;13440;50.860;13.662;2023-04-29T09:19:27;9.70;;;8.73;;
25163;SDS011;13440;50.860;13.662;2023-04-29T09:21:53;9.68;;;8.77;;
25163;SDS011;13440;50.860;13.662;2023-04-29T09:24:23;10.00;;;9.10;;
25163;SDS011;13440;50.860;13.662;2023-04-29T09:26:49;9.68;;;8.85;;
25163;SDS011;13440;50.860;13.662;2023-04-29T09:29:14;10.52;;;9.52;;
25163;SDS011;13440;50.860;13.662;2023-04-29T09:31:40;9.50;;;8.70;;
25163;SDS011;13440;50.860;13.662;2023-04-29T09:34:06;10.30;;;9.30;;
25163;SDS011;13440;50.860;13.662;2023-04-29T09:36:47;8.85;;;8.07;;
25163;SDS011;13440;50.860;13.662;2023-04-29T09:41:41;9.05;;;8.25;;
25163;SDS011;13440;50.860;13.662;2023-04-29T09:44:07;10.40;;;9.50;;
25163;SDS011;13440;50.860;13.662;2023-04-29T09:46:33;10.65;;;9.75;;
25163;SDS011;13440;50.860;13.662;2023-04-29T09:48:59;10.30;;;9.35;;
25163;SDS011;13440;50.860;13.662;2023-04-29T09:51:24;9.30;;;8.50;;
25163;SDS011;13440;50.860;13.662;2023-04-29T09:53:50;8.70;;;7.93;;
25163;SDS011;13440;50.860;13.662;2023-04-29T09:56:15;9.57;;;8.77;;
25163;SDS011;13440;50.860;13.662;2023-04-29T09:58:40;11.03;;;9.97;;
25163;SDS011;13440;50.860;13.662;2023-04-29T10:01:05;21.23;;;18.95;;
25163;SDS011;13440;50.860;13.662;2023-04-29T10:03:31;11.10;;;10.20;;
25163;SDS011;13440;50.860;13.662;2023-04-29T10:05:58;11.82;;;10.77;;
25163;SDS011;13440;50.860;13.662;2023-04-29T10:08:24;10.95;;;9.90;;
25163;SDS011;13440;50.860;13.662;2023-04-29T10:10:50;9.27;;;8.38;;
25163;SDS011;13440;50.860;13.662;2023-04-29T10:13:21;12.70;;;8.18;;
25163;SDS011;13440;50.860;13.662;2023-04-29T10:15:48;8.18;;;5.90;;
25163;SDS011;13440;50.860;13.662;2023-04-29T10:18:19;7.50;;;6.68;;
25163;SDS011;13440;50.860;13.662;2023-04-29T10:20:46;8.32;;;6.68;;
25163;SDS011;13440;50.860;13.662;2023-04-29T10:23:12;9.65;;;7.47;;
25163;SDS011;13440;50.860;13.662;2023-04-29T10:25:38;10.07;;;8.30;;
25163;SDS011;13440;50.860;13.662;2023-04-29T10:28:03;9.63;;;7.82;;
25163;SDS011;13440;50.860;13.662;2023-04-29T10:30:29;9.77;;;7.93;;
25163;SDS011;13440;50.860;13.662;2023-04-29T10:32:55;8.45;;;7.00;;
25163;SDS011;13440;50.860;13.662;2023-04-29T10:35:21;9.57;;;7.75;;
25163;SDS011;13440;50.860;13.662;2023-04-29T10:37:49;8.95;;;8.00;;
25163;SDS011;13440;50.860;13.662;2023-04-29T10:42:43;7.88;;;6.93;;
25163;SDS011;13440;50.860;13.662;2023-04-29T10:53:11;11.05;;;9.85;;
25163;SDS011;13440;50.860;13.662;2023-04-29T10:55:36;12.77;;;10.10;;
25163;SDS011;13440;50.860;13.662;2023-04-29T10:58:02;13.02;;;10.23;;
25163;SDS011;13440;50.860;13.662;2023-04-29T11:00:28;11.20;;;9.15;;
25163;SDS011;13440;50.860;13.662;2023-04-29T11:02:57;11.27;;;9.68;;
25163;SDS011;13440;50.860;13.662;2023-04-29T11:05:35;12.30;;;10.07;;
25163;SDS011;13440;50.860;13.662;2023-04-29T11:10:36;10.50;;;8.77;;
25163;SDS011;13440;50.860;13.662;2023-04-29T11:15:47;7.88;;;7.07;;
25163;SDS011;13440;50.860;13.662;2023-04-29T11:18:12;10.27;;;8.25;;
25163;SDS011;13440;50.860;13.662;2023-04-29T11:23:23;14.70;;;9.27;;
25163;SDS011;13440;50.860;13.662;2023-04-29T11:25:48;11.23;;;9.95;;
25163;SDS011;13440;50.860;13.662;2023-04-29T11:28:13;11.07;;;9.23;;
25163;SDS011;13440;50.860;13.662;2023-04-29T11:30:39;10.75;;;9.65;;
25163;SDS011;13440;50.860;13.662;2023-04-29T11:33:07;11.60;;;10.40;;
25163;SDS011;13440;50.860;13.662;2023-04-29T11:35:32;11.77;;;10.50;;
25163;SDS011;13440;50.860;13.662;2023-04-29T11:37:58;12.32;;;11.02;;
25163;SDS011;13440;50.860;13.662;2023-04-29T11:40:23;11.73;;;10.52;;
25163;SDS011;13440;50.860;13.662;2023-04-29T11:42:49;13.30;;;10.93;;
25163;SDS011;13440;50.860;13.662;2023-04-29T11:45:17;12.07;;;10.88;;
25163;SDS011;13440;50.860;13.662;2023-04-29T11:47:43;15.43;;;11.77;;
25163;SDS011;13440;50.860;13.662;2023-04-29T11:50:12;12.32;;;10.65;;
25163;SDS011;13440;50.860;13.662;2023-04-29T11:52:39;14.07;;;11.73;;
25163;SDS011;13440;50.860;13.662;2023-04-29T11:55:08;13.40;;;11.40;;
25163;SDS011;13440;50.860;13.662;2023-04-29T11:57:34;13.48;;;11.85;;
25163;SDS011;13440;50.860;13.662;2023-04-29T12:00:00;13.73;;;12.20;;
25163;SDS011;13440;50.860;13.662;2023-04-29T12:02:31;13.60;;;11.63;;
25163;SDS011;13440;50.860;13.662;2023-04-29T12:04:59;14.27;;;12.75;;
25163;SDS011;13440;50.860;13.662;2023-04-29T12:07:25;14.68;;;11.93;;
25163;SDS011;13440;50.860;13.662;2023-04-29T12:09:50;13.43;;;11.95;;
25163;SDS011;13440;50.860;13.662;2023-04-29T12:12:15;13.30;;;11.37;;
25163;SDS011;13440;50.860;13.662;2023-04-29T12:14:41;12.10;;;10.88;;
25163;SDS011;13440;50.860;13.662;2023-04-29T12:17:07;13.70;;;11.93;;
25163;SDS011;13440;50.860;13.662;2023-04-29T12:19:33;12.73;;;11.23;;
25163;SDS011;13440;50.860;13.662;2023-04-29T12:21:58;13.00;;;11.60;;
25163;SDS011;13440;50.860;13.662;2023-04-29T12:24:23;14.25;;;12.32;;
25163;SDS011;13440;50.860;13.662;2023-04-29T12:26:49;15.47;;;12.67;;
25163;SDS011;13440;50.860;13.662;2023-04-29T12:29:14;13.68;;;11.70;;
25163;SDS011;13440;50.860;13.662;2023-04-29T12:31:39;14.35;;;12.85;;
25163;SDS011;13440;50.860;13.662;2023-04-29T12:34:06;15.82;;;13.10;;
25163;SDS011;13440;50.860;13.662;2023-04-29T12:36:32;15.50;;;13.10;;
25163;SDS011;13440;50.860;13.662;2023-04-29T12:38:58;15.55;;;13.13;;
25163;SDS011;13440;50.860;13.662;2023-04-29T12:41:39;13.23;;;11.80;;
25163;SDS011;13440;50.860;13.662;2023-04-29T12:44:05;13.20;;;11.80;;
25163;SDS011;13440;50.860;13.662;2023-04-29T12:46:34;12.52;;;11.05;;
25163;SDS011;13440;50.860;13.662;2023-04-29T12:49:01;12.65;;;10.20;;
25163;SDS011;13440;50.860;13.662;2023-04-29T12:51:26;10.73;;;9.55;;
25163;SDS011;13440;50.860;13.662;2023-04-29T12:53:52;10.43;;;9.23;;
25163;SDS011;13440;50.860;13.662;2023-04-29T12:56:17;10.87;;;9.60;;
25163;SDS011;13440;50.860;13.662;2023-04-29T12:58:42;11.27;;;9.23;;
25163;SDS011;13440;50.860;13.662;2023-04-29T13:01:07;10.47;;;8.83;;
25163;SDS011;13440;50.860;13.662;2023-04-29T13:03:33;12.02;;;9.40;;
25163;SDS011;13440;50.860;13.662;2023-04-29T13:05:59;10.10;;;9.05;;
25163;SDS011;13440;50.860;13.662;2023-04-29T13:08:26;10.73;;;8.43;;
25163;SDS011;13440;50.860;13.662;2023-04-29T13:10:51;11.25;;;8.88;;
25163;SDS011;13440;50.860;13.662;2023-04-29T13:13:17;9.40;;;8.48;;
25163;SDS011;13440;50.860;13.662;2023-04-29T13:15:42;10.60;;;9.47;;
25163;SDS011;13440;50.860;13.662;2023-04-29T13:18:08;9.83;;;8.63;;
25163;SDS011;13440;50.860;13.662;2023-04-29T13:20:33;10.30;;;8.30;;
25163;SDS011;13440;50.860;13.662;2023-04-29T13:22:59;8.77;;;7.78;;
25163;SDS011;13440;50.860;13.662;2023-04-29T13:25:24;8.37;;;7.20;;
25163;SDS011;13440;50.860;13.662;2023-04-29T13:27:49;11.35;;;9.98;;
25163;SDS011;13440;50.860;13.662;2023-04-29T13:30:14;14.87;;;11.37;;
25163;SDS011;13440;50.860;13.662;2023-04-29T13:32:40;12.73;;;11.37;;
25163;SDS011;13440;50.860;13.662;2023-04-29T13:35:06;13.77;;;12.27;;
25163;SDS011;13440;50.860;13.662;2023-04-29T13:37:32;12.25;;;10.90;;
25163;SDS011;13440;50.860;13.662;2023-04-29T13:39:57;13.50;;;11.97;;
25163;SDS011;13440;50.860;13.662;2023-04-29T13:42:22;13.30;;;10.85;;
25163;SDS011;13440;50.860;13.662;2023-04-29T13:44:47;11.37;;;9.13;;
25163;SDS011;13440;50.860;13.662;2023-04-29T13:47:14;10.50;;;8.13;;
25163;SDS011;13440;50.860;13.662;2023-04-29T13:49:39;11.40;;;9.33;;
25163;SDS011;13440;50.860;13.662;2023-04-29T13:52:05;11.70;;;9.63;;
25163;SDS011;13440;50.860;13.662;2023-04-29T13:54:31;14.25;;;11.93;;
25163;SDS011;13440;50.860;13.662;2023-04-29T13:56:56;14.70;;;11.75;;
25163;SDS011;13440;50.860;13.662;2023-04-29T13:59:21;15.25;;;12.25;;
25163;SDS011;13440;50.860;13.662;2023-04-29T14:01:46;15.55;;;12.38;;
25163;SDS011;13440;50.860;13.662;2023-04-29T14:04:12;17.02;;;12.80;;
25163;SDS011;13440;50.860;13.662;2023-04-29T14:06:38;17.50;;;14.07;;
25163;SDS011;13440;50.860;13.662;2023-04-29T14:09:03;19.50;;;14.57;;
25163;SDS011;13440;50.860;13.662;2023-04-29T14:11:28;19.40;;;15.18;;
25163;SDS011;13440;50.860;13.662;2023-04-29T14:13:54;21.97;;;16.27;;
25163;SDS011;13440;50.860;13.662;2023-04-29T14:16:19;27.37;;;17.67;;
25163;SDS011;13440;50.860;13.662;2023-04-29T14:18:44;25.42;;;19.33;;
25163;SDS011;13440;50.860;13.662;2023-04-29T14:21:09;26.33;;;19.58;;
25163;SDS011;13440;50.860;13.662;2023-04-29T14:23:35;32.40;;;22.30;;
25163;SDS011;13440;50.860;13.662;2023-04-29T14:26:00;28.42;;;20.48;;
25163;SDS011;13440;50.860;13.662;2023-04-29T14:28:25;28.50;;;20.73;;
25163;SDS011;13440;50.860;13.662;2023-04-29T14:30:51;25.37;;;19.23;;
25163;SDS011;13440;50.860;13.662;2023-04-29T14:33:16;28.97;;;19.77;;
25163;SDS011;13440;50.860;13.662;2023-04-29T14:35:41;30.53;;;21.00;;
25163;SDS011;13440;50.860;13.662;2023-04-29T14:38:06;28.87;;;20.73;;
25163;SDS011;13440;50.860;13.662;2023-04-29T14:40:31;31.65;;;21.88;;
25163;SDS011;13440;50.860;13.662;2023-04-29T14:42:57;29.53;;;21.53;;
25163;SDS011;13440;50.860;13.662;2023-04-29T14:45:22;32.25;;;21.38;;
25163;SDS011;13440;50.860;13.662;2023-04-29T14:47:47;30.97;;;21.23;;
25163;SDS011;13440;50.860;13.662;2023-04-29T14:50:12;29.23;;;20.00;;
25163;SDS011;13440;50.860;13.662;2023-04-29T14:52:37;25.63;;;18.90;;
25163;SDS011;13440;50.860;13.662;2023-04-29T14:55:03;26.25;;;19.05;;